sensor_id;sensor_type;location;lat;lon;timestamp;pressure;altitude;pressure_sealevel;temperature;humidity
38038;BME280;23843;51.320;12.340;2023-05-23T00:00:52;99924.03;;;19.37;73.83
38038;BME280;23843;51.320;12.340;2023-05-23T00:03:17;99913.75;;;19.33;76.54
38038;BME280;23843;51.320;12.340;2023-05-23T00:05:43;99913.44;;;19.36;77.41
38038;BME280;23843;51.320;12.340;2023-05-23T00:08:09;99909.59;;;19.38;78.23
38038;BME280;23843;51.320;12.340;2023-05-23T00:10:34;99912.47;;;19.37;80.02
38038;BME280;23843;51.320;12.340;2023-05-23T00:13:01;99911.63;;;19.36;77.79
38038;BME280;23843;51.320;12.340;2023-05-23T00:15:27;99911.31;;;19.39;74.38
38038;BME280;23843;51.320;12.340;2023-05-23T00:17:52;99918.69;;;19.37;74.86
38038;BME280;23843;51.320;12.340;2023-05-23T00:20:18;99915.16;;;19.37;76.48
38038;BME280;23843;51.320;12.340;2023-05-23T00:22:43;99914.44;;;19.35;77.89
38038;BME280;23843;51.320;12.340;2023-05-23T00:25:09;99907.94;;;19.37;76.86
38038;BME280;23843;51.320;12.340;2023-05-23T00:27:34;99915.84;;;19.39;80.96
38038;BME280;23843;51.320;12.340;2023-05-23T00:30:01;99901.03;;;19.35;79.77
38038;BME280;23843;51.320;12.340;2023-05-23T00:32:27;99899.47;;;19.32;81.24
38038;BME280;23843;51.320;12.340;2023-05-23T00:34:52;99900.31;;;19.33;81.93
38038;BME280;23843;51.320;12.340;2023-05-23T00:37:18;99910.38;;;19.31;84.43
38038;BME280;23843;51.320;12.340;2023-05-23T00:39:43;99906.00;;;19.30;84.97
38038;BME280;23843;51.320;12.340;2023-05-23T00:42:09;99916.19;;;19.26;83.62
38038;BME280;23843;51.320;12.340;2023-05-23T00:44:34;99917.06;;;19.27;84.15
38038;BME280;23843;51.320;12.340;2023-05-23T00:47:01;99910.97;;;19.24;84.57
38038;BME280;23843;51.320;12.340;2023-05-23T00:49:27;99908.28;;;19.24;83.06
38038;BME280;23843;51.320;12.340;2023-05-23T00:51:52;99909.97;;;19.25;82.34
38038;BME280;23843;51.320;12.340;2023-05-23T00:54:23;99913.50;;;19.26;82.93
38038;BME280;23843;51.320;12.340;2023-05-23T00:56:49;99913.66;;;19.24;83.32
38038;BME280;23843;51.320;12.340;2023-05-23T00:59:15;99921.03;;;19.22;85.32
38038;BME280;23843;51.320;12.340;2023-05-23T01:01:41;99908.56;;;19.21;82.79
38038;BME280;23843;51.320;12.340;2023-05-23T01:04:08;99901.66;;;19.19;85.41
38038;BME280;23843;51.320;12.340;2023-05-23T01:06:34;99902.66;;;19.18;84.71
38038;BME280;23843;51.320;12.340;2023-05-23T01:08:59;99900.81;;;19.18;89.47
38038;BME280;23843;51.320;12.340;2023-05-23T01:11:31;99901.13;;;19.15;85.99
38038;BME280;23843;51.320;12.340;2023-05-23T01:14:00;99894.22;;;19.13;86.11
38038;BME280;23843;51.320;12.340;2023-05-23T01:16:33;99897.22;;;19.10;86.99
38038;BME280;23843;51.320;12.340;2023-05-23T01:19:06;99887.63;;;19.07;84.85
38038;BME280;23843;51.320;12.340;2023-05-23T01:21:38;99902.72;;;19.08;85.97
38038;BME280;23843;51.320;12.340;2023-05-23T01:24:31;99907.09;;;19.09;83.13
38038;BME280;23843;51.320;12.340;2023-05-23T01:27:12;99905.53;;;19.07;90.53
38038;BME280;23843;51.320;12.340;2023-05-23T01:29:46;99903.31;;;19.02;90.54
38038;BME280;23843;51.320;12.340;2023-05-23T01:32:14;99903.59;;;18.99;89.84
38038;BME280;23843;51.320;12.340;2023-05-23T01:34:41;99909.28;;;18.96;91.31
38038;BME280;23843;51.320;12.340;2023-05-23T01:37:08;99909.56;;;18.93;95.62
38038;BME280;23843;51.320;12.340;2023-05-23T01:39:34;99908.47;;;18.86;91.35
38038;BME280;23843;51.320;12.340;2023-05-23T01:41:59;99919.22;;;18.86;93.11
38038;BME280;23843;51.320;12.340;2023-05-23T01:44:24;99920.06;;;18.86;92.52
38038;BME280;23843;51.320;12.340;2023-05-23T01:46:51;99915.53;;;18.87;94.76
38038;BME280;23843;51.320;12.340;2023-05-23T01:49:17;99918.19;;;18.87;92.10
38038;BME280;23843;51.320;12.340;2023-05-23T01:51:44;99925.28;;;18.88;91.75
38038;BME280;23843;51.320;12.340;2023-05-23T01:54:10;99920.59;;;18.90;93.01
38038;BME280;23843;51.320;12.340;2023-05-23T01:56:36;99927.66;;;18.91;94.19
38038;BME280;23843;51.320;12.340;2023-05-23T01:59:02;99923.00;;;18.93;92.29
38038;BME280;23843;51.320;12.340;2023-05-23T02:01:28;99918.59;;;18.92;95.99
38038;BME280;23843;51.320;12.340;2023-05-23T02:03:55;99922.28;;;18.91;94.00
38038;BME280;23843;51.320;12.340;2023-05-23T02:06:20;99918.78;;;18.90;98.09
38038;BME280;23843;51.320;12.340;2023-05-23T02:08:46;99921.72;;;18.87;96.48
38038;BME280;23843;51.320;12.340;2023-05-23T02:11:11;99913.13;;;18.84;99.37
38038;BME280;23843;51.320;12.340;2023-05-23T02:13:37;99918.94;;;18.79;99.90
38038;BME280;23843;51.320;12.340;2023-05-23T02:16:02;99914.59;;;18.78;100.00
38038;BME280;23843;51.320;12.340;2023-05-23T02:18:28;99914.97;;;18.73;99.42
38038;BME280;23843;51.320;12.340;2023-05-23T02:20:55;99915.97;;;18.72;100.00
38038;BME280;23843;51.320;12.340;2023-05-23T02:23:20;99916.97;;;18.71;99.74
38038;BME280;23843;51.320;12.340;2023-05-23T02:25:46;99916.13;;;18.71;100.00
38038;BME280;23843;51.320;12.340;2023-05-23T02:28:11;99918.41;;;18.66;100.00
38038;BME280;23843;51.320;12.340;2023-05-23T02:30:37;99911.63;;;18.61;100.00
38038;BME280;23843;51.320;12.340;2023-05-23T02:33:03;99913.59;;;18.59;100.00
38038;BME280;23843;51.320;12.340;2023-05-23T02:35:29;99927.72;;;18.61;99.64
38038;BME280;23843;51.320;12.340;2023-05-23T02:37:56;99919.53;;;18.63;100.00
38038;BME280;23843;51.320;12.340;2023-05-23T02:40:21;99922.06;;;18.65;100.00
38038;BME280;23843;51.320;12.340;2023-05-23T02:42:47;99919.25;;;18.66;100.00
38038;BME280;23843;51.320;12.340;2023-05-23T02:45:12;99920.91;;;18.67;100.00
38038;BME280;23843;51.320;12.340;2023-05-23T02:47:38;99925.97;;;18.70;100.00
38038;BME280;23843;51.320;12.340;2023-05-23T02:50:04;99925.72;;;18.73;100.00
38038;BME280;23843;51.320;12.340;2023-05-23T02:52:31;99922.03;;;18.74;100.00
38038;BME280;23843;51.320;12.340;2023-05-23T02:54:58;99924.59;;;18.76;100.00
38038;BME280;23843;51.320;12.340;2023-05-23T03:00:05;99929.69;;;18.79;100.00
38038;BME280;23843;51.320;12.340;2023-05-23T03:02:30;99920.63;;;18.80;100.00
38038;BME280;23843;51.320;12.340;2023-05-23T03:04:56;99926.56;;;18.84;100.00
38038;BME280;23843;51.320;12.340;2023-05-23T03:07:21;99927.41;;;18.84;100.00
38038;BME280;23843;51.320;12.340;2023-05-23T03:09:47;99931.94;;;18.84;100.00
38038;BME280;23843;51.320;12.340;2023-05-23T03:12:14;99935.75;;;18.81;100.00
38038;BME280;23843;51.320;12.340;2023-05-23T03:14:39;99934.19;;;18.78;100.00
38038;BME280;23843;51.320;12.340;2023-05-23T03:17:05;99929.09;;;18.75;100.00
38038;BME280;23843;51.320;12.340;2023-05-23T03:19:30;99931.91;;;18.74;100.00
38038;BME280;23843;51.320;12.340;2023-05-23T03:21:55;99930.09;;;18.74;100.00
38038;BME280;23843;51.320;12.340;2023-05-23T03:24:21;99925.44;;;18.76;100.00
38038;BME280;23843;51.320;12.340;2023-05-23T03:26:46;99921.75;;;18.77;100.00
38038;BME280;23843;51.320;12.340;2023-05-23T03:29:13;99935.88;;;18.79;100.00
38038;BME280;23843;51.320;12.340;2023-05-23T03:31:39;99932.50;;;18.77;100.00
38038;BME280;23843;51.320;12.340;2023-05-23T03:34:04;99929.97;;;18.76;100.00
38038;BME280;23843;51.320;12.340;2023-05-23T03:36:29;99936.44;;;18.73;100.00
38038;BME280;23843;51.320;12.340;2023-05-23T03:38:55;99929.38;;;18.72;100.00
38038;BME280;23843;51.320;12.340;2023-05-23T03:41:20;99948.03;;;18.74;100.00
38038;BME280;23843;51.320;12.340;2023-05-23T03:43:46;99947.88;;;18.75;100.00
38038;BME280;23843;51.320;12.340;2023-05-23T03:46:13;99952.56;;;18.73;100.00
38038;BME280;23843;51.320;12.340;2023-05-23T03:48:38;99953.38;;;18.74;100.00
38038;BME280;23843;51.320;12.340;2023-05-23T03:51:04;99948.31;;;18.71;100.00
38038;BME280;23843;51.320;12.340;2023-05-23T03:53:29;99950.84;;;18.72;100.00
38038;BME280;23843;51.320;12.340;2023-05-23T03:55:54;99954.22;;;18.74;100.00
38038;BME280;23843;51.320;12.340;2023-05-23T03:58:20;99955.94;;;18.75;100.00
38038;BME280;23843;51.320;12.340;2023-05-23T04:00:45;99949.69;;;18.75;100.00
38038;BME280;23843;51.320;12.340;2023-05-23T04:03:12;99957.66;;;18.76;100.00
38038;BME280;23843;51.320;12.340;2023-05-23T04:05:38;99964.44;;;18.80;100.00
38038;BME280;23843;51.320;12.340;2023-05-23T04:08:03;99962.44;;;18.83;100.00
38038;BME280;23843;51.320;12.340;2023-05-23T04:10:29;99969.38;;;18.85;100.00
38038;BME280;23843;51.320;12.340;2023-05-23T04:12:54;99964.13;;;18.84;100.00
38038;BME280;23843;51.320;12.340;2023-05-23T04:15:20;99967.81;;;18.83;100.00
38038;BME280;23843;51.320;12.340;2023-05-23T04:17:45;99973.84;;;18.85;100.00
38038;BME280;23843;51.320;12.340;2023-05-23T04:20:12;99968.22;;;18.88;100.00
38038;BME280;23843;51.320;12.340;2023-05-23T04:22:38;99965.94;;;18.93;100.00
38038;BME280;23843;51.320;12.340;2023-05-23T04:25:04;99975.94;;;19.00;100.00
38038;BME280;23843;51.320;12.340;2023-05-23T04:27:30;99967.16;;;19.08;100.00
38038;BME280;23843;51.320;12.340;2023-05-23T04:29:55;99973.63;;;19.15;100.00
38038;BME280;23843;51.320;12.340;2023-05-23T04:32:21;99973.31;;;19.18;100.00
38038;BME280;23843;51.320;12.340;2023-05-23T04:34:46;99977.72;;;19.19;100.00
38038;BME280;23843;51.320;12.340;2023-05-23T04:37:13;99980.41;;;19.19;100.00
38038;BME280;23843;51.320;12.340;2023-05-23T04:39:38;99989.72;;;19.15;100.00
38038;BME280;23843;51.320;12.340;2023-05-23T04:42:04;99994.41;;;19.13;100.00
38038;BME280;23843;51.320;12.340;2023-05-23T04:44:30;99994.81;;;19.18;100.00
38038;BME280;23843;51.320;12.340;2023-05-23T04:46:55;99989.09;;;19.31;100.00
38038;BME280;23843;51.320;12.340;2023-05-23T04:49:21;99991.22;;;19.55;100.00
38038;BME280;23843;51.320;12.340;2023-05-23T04:51:47;99994.72;;;19.93;100.00
38038;BME280;23843;51.320;12.340;2023-05-23T04:54:13;99996.78;;;20.71;100.00
38038;BME280;23843;51.320;12.340;2023-05-23T04:56:41;99990.88;;;21.28;100.00
38038;BME280;23843;51.320;12.340;2023-05-23T04:59:07;99998.41;;;22.01;96.82
38038;BME280;23843;51.320;12.340;2023-05-23T05:01:32;100006.25;;;22.61;92.23
38038;BME280;23843;51.320;12.340;2023-05-23T05:03:58;100003.19;;;23.05;88.12
38038;BME280;23843;51.320;12.340;2023-05-23T05:06:23;100007.13;;;23.82;85.50
38038;BME280;23843;51.320;12.340;2023-05-23T05:08:49;100004.19;;;23.91;83.23
38038;BME280;23843;51.320;12.340;2023-05-23T05:11:16;100007.06;;;24.67;81.14
38038;BME280;23843;51.320;12.340;2023-05-23T05:13:41;100002.56;;;25.42;75.10
38038;BME280;23843;51.320;12.340;2023-05-23T05:16:06;100005.34;;;26.15;73.32
38038;BME280;23843;51.320;12.340;2023-05-23T05:18:35;100004.31;;;26.16;68.21
38038;BME280;23843;51.320;12.340;2023-05-23T05:21:00;100011.34;;;26.10;69.98
38038;BME280;23843;51.320;12.340;2023-05-23T05:23:26;100007.31;;;26.64;68.35
38038;BME280;23843;51.320;12.340;2023-05-23T05:25:51;100012.81;;;27.27;68.49
38038;BME280;23843;51.320;12.340;2023-05-23T05:28:18;100009.78;;;26.87;62.56
38038;BME280;23843;51.320;12.340;2023-05-23T05:30:46;100020.09;;;26.27;63.84
38038;BME280;23843;51.320;12.340;2023-05-23T05:33:12;100030.88;;;25.69;67.91
38038;BME280;23843;51.320;12.340;2023-05-23T05:35:38;100024.22;;;24.97;70.85
38038;BME280;23843;51.320;12.340;2023-05-23T05:38:03;100020.25;;;24.47;73.44
38038;BME280;23843;51.320;12.340;2023-05-23T05:40:29;100027.84;;;23.98;75.83
38038;BME280;23843;51.320;12.340;2023-05-23T05:42:54;100031.91;;;23.54;79.25
38038;BME280;23843;51.320;12.340;2023-05-23T05:45:21;100027.16;;;23.17;80.57
38038;BME280;23843;51.320;12.340;2023-05-23T05:47:47;100030.19;;;22.89;82.37
38038;BME280;23843;51.320;12.340;2023-05-23T05:50:12;100029.84;;;22.68;83.18
38038;BME280;23843;51.320;12.340;2023-05-23T05:52:38;100032.41;;;22.44;84.02
38038;BME280;23843;51.320;12.340;2023-05-23T05:55:04;100030.81;;;22.17;86.18
38038;BME280;23843;51.320;12.340;2023-05-23T05:57:30;100034.31;;;22.01;87.10
38038;BME280;23843;51.320;12.340;2023-05-23T05:59:58;100037.81;;;21.86;88.32
38038;BME280;23843;51.320;12.340;2023-05-23T06:02:25;100039.97;;;21.74;89.17
38038;BME280;23843;51.320;12.340;2023-05-23T06:04:50;100043.97;;;21.62;89.71
38038;BME280;23843;51.320;12.340;2023-05-23T06:07:16;100038.69;;;21.52;90.66
38038;BME280;23843;51.320;12.340;2023-05-23T06:09:41;100046.38;;;21.38;92.23
38038;BME280;23843;51.320;12.340;2023-05-23T06:12:07;100043.09;;;21.27;92.26
38038;BME280;23843;51.320;12.340;2023-05-23T06:14:32;100045.09;;;21.25;92.61
38038;BME280;23843;51.320;12.340;2023-05-23T06:16:58;100052.59;;;21.13;94.72
38038;BME280;23843;51.320;12.340;2023-05-23T06:19:25;100050.72;;;21.05;93.93
38038;BME280;23843;51.320;12.340;2023-05-23T06:21:50;100048.47;;;21.01;92.85
38038;BME280;23843;51.320;12.340;2023-05-23T06:24:16;100035.97;;;20.91;95.14
38038;BME280;23843;51.320;12.340;2023-05-23T06:26:41;100039.59;;;20.82;94.04
38038;BME280;23843;51.320;12.340;2023-05-23T06:29:07;100056.06;;;20.79;92.95
38038;BME280;23843;51.320;12.340;2023-05-23T06:31:32;100049.38;;;20.65;94.48
38038;BME280;23843;51.320;12.340;2023-05-23T06:33:58;100049.47;;;20.56;95.75
38038;BME280;23843;51.320;12.340;2023-05-23T06:36:24;100045.84;;;20.47;96.99
38038;BME280;23843;51.320;12.340;2023-05-23T06:38:50;100051.31;;;20.37;97.60
38038;BME280;23843;51.320;12.340;2023-05-23T06:41:15;100051.91;;;20.31;97.66
38038;BME280;23843;51.320;12.340;2023-05-23T06:43:41;100061.44;;;20.25;96.87
38038;BME280;23843;51.320;12.340;2023-05-23T06:46:06;100062.50;;;20.15;99.85
38038;BME280;23843;51.320;12.340;2023-05-23T06:48:32;100058.03;;;20.05;100.00
38038;BME280;23843;51.320;12.340;2023-05-23T06:50:57;100066.03;;;19.97;100.00
38038;BME280;23843;51.320;12.340;2023-05-23T06:53:24;100076.53;;;19.91;100.00
38038;BME280;23843;51.320;12.340;2023-05-23T06:55:49;100074.59;;;19.83;100.00
38038;BME280;23843;51.320;12.340;2023-05-23T06:58:15;100080.84;;;19.74;100.00
38038;BME280;23843;51.320;12.340;2023-05-23T07:00:40;100081.72;;;19.64;100.00
38038;BME280;23843;51.320;12.340;2023-05-23T07:03:06;100082.59;;;19.55;100.00
38038;BME280;23843;51.320;12.340;2023-05-23T07:05:31;100089.53;;;19.48;100.00
38038;BME280;23843;51.320;12.340;2023-05-23T07:07:57;100083.53;;;19.36;100.00
38038;BME280;23843;51.320;12.340;2023-05-23T07:10:24;100086.47;;;19.33;100.00
38038;BME280;23843;51.320;12.340;2023-05-23T07:12:49;100079.56;;;19.31;100.00
38038;BME280;23843;51.320;12.340;2023-05-23T07:15:15;100086.66;;;19.32;100.00
38038;BME280;23843;51.320;12.340;2023-05-23T07:17:41;100078.84;;;19.29;100.00
38038;BME280;23843;51.320;12.340;2023-05-23T07:20:07;100078.59;;;19.32;99.12
38038;BME280;23843;51.320;12.340;2023-05-23T07:22:33;100081.28;;;19.32;97.37
38038;BME280;23843;51.320;12.340;2023-05-23T07:24:58;100083.53;;;19.36;96.98
38038;BME280;23843;51.320;12.340;2023-05-23T07:27:25;100085.06;;;19.39;95.04
38038;BME280;23843;51.320;12.340;2023-05-23T07:29:51;100084.91;;;19.40;95.77
38038;BME280;23843;51.320;12.340;2023-05-23T07:32:16;100092.00;;;19.41;93.86
38038;BME280;23843;51.320;12.340;2023-05-23T07:34:42;100090.69;;;19.45;92.66
38038;BME280;23843;51.320;12.340;2023-05-23T07:37:07;100096.47;;;19.51;91.88
38038;BME280;23843;51.320;12.340;2023-05-23T07:39:33;100095.50;;;19.52;90.77
38038;BME280;23843;51.320;12.340;2023-05-23T07:41:58;100094.78;;;19.50;90.97
38038;BME280;23843;51.320;12.340;2023-05-23T07:44:25;100097.91;;;19.45;90.68
38038;BME280;23843;51.320;12.340;2023-05-23T07:46:50;100099.34;;;19.39;90.91
38038;BME280;23843;51.320;12.340;2023-05-23T07:49:16;100101.63;;;19.34;90.46
38038;BME280;23843;51.320;12.340;2023-05-23T07:51:41;100104.75;;;19.30;91.00
38038;BME280;23843;51.320;12.340;2023-05-23T07:54:07;100107.03;;;19.24;91.87
38038;BME280;23843;51.320;12.340;2023-05-23T07:56:32;100109.00;;;19.22;91.60
38038;BME280;23843;51.320;12.340;2023-05-23T07:58:58;100111.81;;;19.21;91.62
38038;BME280;23843;51.320;12.340;2023-05-23T08:01:24;100114.25;;;19.14;91.76
38038;BME280;23843;51.320;12.340;2023-05-23T08:03:50;100111.84;;;19.11;92.87
38038;BME280;23843;51.320;12.340;2023-05-23T08:06:15;100113.41;;;19.04;94.65
38038;BME280;23843;51.320;12.340;2023-05-23T08:08:41;100122.34;;;18.95;98.12
38038;BME280;23843;51.320;12.340;2023-05-23T08:11:06;100122.59;;;18.92;99.01
38038;BME280;23843;51.320;12.340;2023-05-23T08:13:32;100117.09;;;18.93;97.10
38038;BME280;23843;51.320;12.340;2023-05-23T08:15:57;100111.59;;;18.95;98.97
38038;BME280;23843;51.320;12.340;2023-05-23T08:18:24;100121.47;;;18.94;98.03
38038;BME280;23843;51.320;12.340;2023-05-23T08:20:49;100133.06;;;18.95;98.68
38038;BME280;23843;51.320;12.340;2023-05-23T08:23:15;100126.69;;;18.96;99.79
38038;BME280;23843;51.320;12.340;2023-05-23T08:25:40;100124.31;;;18.93;99.79
38038;BME280;23843;51.320;12.340;2023-05-23T08:28:06;100134.22;;;18.92;99.36
38038;BME280;23843;51.320;12.340;2023-05-23T08:30:31;100130.53;;;18.93;99.35
38038;BME280;23843;51.320;12.340;2023-05-23T08:32:57;100133.91;;;18.95;100.00
38038;BME280;23843;51.320;12.340;2023-05-23T08:35:24;100132.78;;;18.98;100.00
38038;BME280;23843;51.320;12.340;2023-05-23T08:37:49;100137.31;;;19.07;100.00
38038;BME280;23843;51.320;12.340;2023-05-23T08:40:18;100131.31;;;19.23;100.00
38038;BME280;23843;51.320;12.340;2023-05-23T08:42:43;100125.81;;;19.34;100.00
38038;BME280;23843;51.320;12.340;2023-05-23T08:45:09;100130.13;;;19.45;100.00
38038;BME280;23843;51.320;12.340;2023-05-23T08:47:35;100138.44;;;19.61;100.00
38038;BME280;23843;51.320;12.340;2023-05-23T08:50:02;100135.53;;;19.82;100.00
38038;BME280;23843;51.320;12.340;2023-05-23T08:52:32;100139.03;;;20.02;99.04
38038;BME280;23843;51.320;12.340;2023-05-23T08:54:59;100134.44;;;20.13;96.95
38038;BME280;23843;51.320;12.340;2023-05-23T08:57:25;100144.28;;;20.22;97.17
38038;BME280;23843;51.320;12.340;2023-05-23T08:59:51;100142.84;;;20.27;96.18
38038;BME280;23843;51.320;12.340;2023-05-23T09:02:16;100136.38;;;20.38;96.24
38038;BME280;23843;51.320;12.340;2023-05-23T09:04:42;100137.84;;;20.50;95.56
38038;BME280;23843;51.320;12.340;2023-05-23T09:07:08;100136.97;;;20.60;94.35
38038;BME280;23843;51.320;12.340;2023-05-23T09:09:37;100137.59;;;20.71;94.23
38038;BME280;23843;51.320;12.340;2023-05-23T09:12:03;100146.53;;;20.90;92.82
38038;BME280;23843;51.320;12.340;2023-05-23T09:14:29;100145.56;;;20.99;90.96
38038;BME280;23843;51.320;12.340;2023-05-23T09:16:59;100147.09;;;21.02;90.06
38038;BME280;23843;51.320;12.340;2023-05-23T09:19:25;100146.81;;;21.05;90.04
38038;BME280;23843;51.320;12.340;2023-05-23T09:21:52;100159.13;;;21.07;90.42
38038;BME280;23843;51.320;12.340;2023-05-23T09:24:18;100157.41;;;21.06;90.52
38038;BME280;23843;51.320;12.340;2023-05-23T09:26:47;100158.25;;;21.07;90.82
38038;BME280;23843;51.320;12.340;2023-05-23T09:29:13;100156.06;;;21.02;90.44
38038;BME280;23843;51.320;12.340;2023-05-23T09:31:38;100152.81;;;20.99;90.24
38038;BME280;23843;51.320;12.340;2023-05-23T09:34:04;100151.44;;;20.94;90.25
38038;BME280;23843;51.320;12.340;2023-05-23T09:36:30;100157.44;;;20.88;90.47
38038;BME280;23843;51.320;12.340;2023-05-23T09:38:56;100150.66;;;20.84;90.60
38038;BME280;23843;51.320;12.340;2023-05-23T09:41:21;100149.59;;;20.77;90.84
38038;BME280;23843;51.320;12.340;2023-05-23T09:43:52;100146.50;;;20.72;91.33
38038;BME280;23843;51.320;12.340;2023-05-23T09:46:19;100151.13;;;20.62;90.16
38038;BME280;23843;51.320;12.340;2023-05-23T09:48:45;100153.84;;;20.52;90.80
38038;BME280;23843;51.320;12.340;2023-05-23T09:51:11;100148.28;;;20.36;92.39
38038;BME280;23843;51.320;12.340;2023-05-23T09:53:39;100154.44;;;20.28;92.45
38038;BME280;23843;51.320;12.340;2023-05-23T09:56:08;100155.06;;;20.22;93.33
38038;BME280;23843;51.320;12.340;2023-05-23T09:58:35;100155.63;;;20.16;93.15
38038;BME280;23843;51.320;12.340;2023-05-23T10:01:02;100160.47;;;20.12;93.04
38038;BME280;23843;51.320;12.340;2023-05-23T10:03:33;100155.53;;;20.07;92.60
38038;BME280;23843;51.320;12.340;2023-05-23T10:06:01;100162.34;;;20.02;93.12
38038;BME280;23843;51.320;12.340;2023-05-23T10:08:31;100162.25;;;19.94;94.48
38038;BME280;23843;51.320;12.340;2023-05-23T10:14:15;100168.84;;;19.72;95.06
38038;BME280;23843;51.320;12.340;2023-05-23T10:16:54;100165.72;;;19.66;95.62
38038;BME280;23843;51.320;12.340;2023-05-23T10:19:24;100162.47;;;19.63;95.33
38038;BME280;23843;51.320;12.340;2023-05-23T10:21:55;100160.91;;;19.60;95.03
38038;BME280;23843;51.320;12.340;2023-05-23T10:24:23;100166.03;;;19.54;94.81
38038;BME280;23843;51.320;12.340;2023-05-23T10:26:49;100158.97;;;19.53;95.90
38038;BME280;23843;51.320;12.340;2023-05-23T10:29:15;100159.84;;;19.53;95.33
38038;BME280;23843;51.320;12.340;2023-05-23T10:31:41;100160.09;;;19.50;95.13
38038;BME280;23843;51.320;12.340;2023-05-23T10:34:14;100162.94;;;19.49;95.68
38038;BME280;23843;51.320;12.340;2023-05-23T10:36:50;100160.09;;;19.50;95.54
38038;BME280;23843;51.320;12.340;2023-05-23T10:39:22;100162.78;;;19.50;94.99
38038;BME280;23843;51.320;12.340;2023-05-23T10:41:52;100159.25;;;19.50;94.87
38038;BME280;23843;51.320;12.340;2023-05-23T10:44:25;100166.91;;;19.44;95.18
38038;BME280;23843;51.320;12.340;2023-05-23T10:46:52;100168.19;;;19.40;95.16
38038;BME280;23843;51.320;12.340;2023-05-23T10:49:19;100170.16;;;19.38;95.77
38038;BME280;23843;51.320;12.340;2023-05-23T10:51:47;100176.53;;;19.37;95.88
38038;BME280;23843;51.320;12.340;2023-05-23T10:54:13;100177.69;;;19.35;97.00
38038;BME280;23843;51.320;12.340;2023-05-23T10:56:38;100180.91;;;19.29;97.59
38038;BME280;23843;51.320;12.340;2023-05-23T10:59:04;100183.19;;;19.23;96.95
38038;BME280;23843;51.320;12.340;2023-05-23T11:01:30;100188.72;;;19.22;97.34
38038;BME280;23843;51.320;12.340;2023-05-23T11:03:55;100183.63;;;19.19;96.46
38038;BME280;23843;51.320;12.340;2023-05-23T11:06:30;100179.13;;;19.19;97.38
38038;BME280;23843;51.320;12.340;2023-05-23T11:09:01;100189.84;;;19.19;97.00
38038;BME280;23843;51.320;12.340;2023-05-23T11:11:52;100185.44;;;19.28;94.71
38038;BME280;23843;51.320;12.340;2023-05-23T11:14:19;100195.22;;;19.39;96.37
38038;BME280;23843;51.320;12.340;2023-05-23T11:16:45;100192.34;;;19.50;94.46
38038;BME280;23843;51.320;12.340;2023-05-23T11:19:20;100197.44;;;19.53;95.19
38038;BME280;23843;51.320;12.340;2023-05-23T11:21:49;100201.94;;;19.53;94.31
38038;BME280;23843;51.320;12.340;2023-05-23T11:24:16;100202.13;;;19.41;93.47
38038;BME280;23843;51.320;12.340;2023-05-23T11:26:50;100212.47;;;19.36;94.90
38038;BME280;23843;51.320;12.340;2023-05-23T11:29:16;100211.88;;;19.33;94.36
38038;BME280;23843;51.320;12.340;2023-05-23T11:31:42;100219.09;;;19.22;95.06
38038;BME280;23843;51.320;12.340;2023-05-23T11:34:07;100222.22;;;19.18;96.63
38038;BME280;23843;51.320;12.340;2023-05-23T11:36:33;100220.94;;;19.12;97.97
38038;BME280;23843;51.320;12.340;2023-05-23T11:39:02;100228.13;;;19.12;98.33
38038;BME280;23843;51.320;12.340;2023-05-23T11:41:29;100221.22;;;19.09;99.31
38038;BME280;23843;51.320;12.340;2023-05-23T11:43:54;100216.97;;;19.07;100.00
38038;BME280;23843;51.320;12.340;2023-05-23T11:46:20;100224.78;;;19.10;99.47
38038;BME280;23843;51.320;12.340;2023-05-23T11:48:45;100224.34;;;19.14;98.91
38038;BME280;23843;51.320;12.340;2023-05-23T11:51:11;100220.06;;;19.21;98.85
38038;BME280;23843;51.320;12.340;2023-05-23T11:53:37;100228.28;;;19.30;96.82
38038;BME280;23843;51.320;12.340;2023-05-23T11:56:04;100231.41;;;19.35;97.34
38038;BME280;23843;51.320;12.340;2023-05-23T11:58:32;100221.22;;;19.29;98.95
38038;BME280;23843;51.320;12.340;2023-05-23T12:00:58;100228.84;;;19.23;99.56
38038;BME280;23843;51.320;12.340;2023-05-23T12:03:24;100233.09;;;19.16;99.37
38038;BME280;23843;51.320;12.340;2023-05-23T12:05:50;100238.44;;;19.07;99.30
38038;BME280;23843;51.320;12.340;2023-05-23T12:08:15;100241.84;;;18.99;100.00
38038;BME280;23843;51.320;12.340;2023-05-23T12:10:48;100240.44;;;18.95;100.00
38038;BME280;23843;51.320;12.340;2023-05-23T12:13:15;100241.56;;;18.92;100.00
38038;BME280;23843;51.320;12.340;2023-05-23T12:15:41;100248.63;;;18.84;100.00
38038;BME280;23843;51.320;12.340;2023-05-23T12:18:06;100251.72;;;18.79;100.00
38038;BME280;23843;51.320;12.340;2023-05-23T12:20:32;100254.94;;;18.73;100.00
38038;BME280;23843;51.320;12.340;2023-05-23T12:22:57;100252.50;;;18.70;100.00
38038;BME280;23843;51.320;12.340;2023-05-23T12:25:23;100246.41;;;18.68;100.00
38038;BME280;23843;51.320;12.340;2023-05-23T12:27:49;100251.09;;;18.66;100.00
38038;BME280;23843;51.320;12.340;2023-05-23T12:30:16;100252.78;;;18.67;100.00
38038;BME280;23843;51.320;12.340;2023-05-23T12:32:42;100257.59;;;18.63;100.00
38038;BME280;23843;51.320;12.340;2023-05-23T12:35:10;100254.91;;;18.63;100.00
38038;BME280;23843;51.320;12.340;2023-05-23T12:37:38;100248.81;;;18.61;100.00
38038;BME280;23843;51.320;12.340;2023-05-23T12:40:12;100257.00;;;18.59;100.00
38038;BME280;23843;51.320;12.340;2023-05-23T12:42:49;100259.25;;;18.54;100.00